sensor_id;sensor_type;location;lat;lon;timestamp;P1;P2;P0
78999;PMS7003;68406;53.914;27.416;2023-03-11T00:03:43;48.7;38.1;23.7
78999;PMS7003;68406;53.914;27.416;2023-03-11T00:09:21;46.5;36.2;23.8
78999;PMS7003;68406;53.914;27.416;2023-03-11T00:14:11;38.1;31.1;21.2
78999;PMS7003;68406;53.914;27.416;2023-03-11T00:18:57;27.4;22.5;16.1
78999;PMS7003;68406;53.914;27.416;2023-03-11T00:23:49;25.6;20.8;14.4
78999;PMS7003;68406;53.914;27.416;2023-03-11T00:29:07;21.3;17.3;11.9
78999;PMS7003;68406;53.914;27.416;2023-03-11T00:34:21;22.5;15.9;10.7
78999;PMS7003;68406;53.914;27.416;2023-03-11T00:39:09;19.4;16.2;10.9
78999;PMS7003;68406;53.914;27.416;2023-03-11T00:43:53;22;17.4;11.6
78999;PMS7003;68406;53.914;27.416;2023-03-11T00:48:35;21;17;11
78999;PMS7003;68406;53.914;27.416;2023-03-11T00:53:53;21;17.3;12.6
78999;PMS7003;68406;53.914;27.416;2023-03-11T00:59:09;23;17.9;12.1
78999;PMS7003;68406;53.914;27.416;2023-03-11T01:04:11;20.8;17.2;11.9
78999;PMS7003;68406;53.914;27.416;2023-03-11T01:09:07;22.7;17.5;11.8
78999;PMS7003;68406;53.914;27.416;2023-03-11T01:13:49;22;17.8;12.2
78999;PMS7003;68406;53.914;27.416;2023-03-11T01:18:53;22.5;17.8;12.2
78999;PMS7003;68406;53.914;27.416;2023-03-11T01:24:19;20.9;17.3;11.8
78999;PMS7003;68406;53.914;27.416;2023-03-11T01:29:11;20.9;16.6;11.4
78999;PMS7003;68406;53.914;27.416;2023-03-11T01:33:55;20.6;16.6;11.2
78999;PMS7003;68406;53.914;27.416;2023-03-11T01:38:37;20.4;15.3;9.2
78999;PMS7003;68406;53.914;27.416;2023-03-11T01:43:50;24.1;18.5;11.9
78999;PMS7003;68406;53.914;27.416;2023-03-11T01:48:47;22.7;18.8;12.8
78999;PMS7003;68406;53.914;27.416;2023-03-11T01:54:13;25.6;19.8;13.2
78999;PMS7003;68406;53.914;27.416;2023-03-11T01:59:22;23.4;18.9;12.2
78999;PMS7003;68406;53.914;27.416;2023-03-11T02:03:37;26.4;20.7;13.3
78999;PMS7003;68406;53.914;27.416;2023-03-11T02:08:55;27.8;21.2;13.6
78999;PMS7003;68406;53.914;27.416;2023-03-11T02:14:19;26.3;21.2;13.6
78999;PMS7003;68406;53.914;27.416;2023-03-11T02:19:00;27.3;20.9;13.2
78999;PMS7003;68406;53.914;27.416;2023-03-11T02:24:16;27.9;21.3;13.8
78999;PMS7003;68406;53.914;27.416;2023-03-11T02:28:41;26.5;21.5;13.7
78999;PMS7003;68406;53.914;27.416;2023-03-11T02:33:41;30.1;23.5;14.4
78999;PMS7003;68406;53.914;27.416;2023-03-11T02:39:26;28.9;20.7;12
78999;PMS7003;68406;53.914;27.416;2023-03-11T02:44:10;31.6;22.3;13.6
78999;PMS7003;68406;53.914;27.416;2023-03-11T02:49:17;33.8;24.9;15
78999;PMS7003;68406;53.914;27.416;2023-03-11T02:53:36;32;23.3;14.9
78999;PMS7003;68406;53.914;27.416;2023-03-11T02:58:35;28.7;21.9;13.9
78999;PMS7003;68406;53.914;27.416;2023-03-11T03:04:17;29.3;22.1;13.8
78999;PMS7003;68406;53.914;27.416;2023-03-11T03:09:01;29.8;22.9;14.2
78999;PMS7003;68406;53.914;27.416;2023-03-11T03:14:19;28;20.9;13
78999;PMS7003;68406;53.914;27.416;2023-03-11T03:18:37;28.7;22;14.6
78999;PMS7003;68406;53.914;27.416;2023-03-11T03:23:53;29.4;21.7;14.2
78999;PMS7003;68406;53.914;27.416;2023-03-11T03:29:19;29.9;23;14.5
78999;PMS7003;68406;53.914;27.416;2023-03-11T03:34:11;34.4;24.9;15
78999;PMS7003;68406;53.914;27.416;2023-03-11T03:39:21;34.3;24;15.4
78999;PMS7003;68406;53.914;27.416;2023-03-11T03:43:57;32.2;23;14.5
78999;PMS7003;68406;53.914;27.416;2023-03-11T03:49:03;29.8;23.1;14.9
78999;PMS7003;68406;53.914;27.416;2023-03-11T03:54:21;28;21.6;13.9
78999;PMS7003;68406;53.914;27.416;2023-03-11T03:59:13;26.8;20.5;12.9
78999;PMS7003;68406;53.914;27.416;2023-03-11T04:04:21;30;21.8;13.7
78999;PMS7003;68406;53.914;27.416;2023-03-11T04:09:09;32.4;23.1;14.5
78999;PMS7003;68406;53.914;27.416;2023-03-11T04:13:43;29;21.8;13.5
78999;PMS7003;68406;53.914;27.416;2023-03-11T04:19:21;29.1;20.9;12.8
78999;PMS7003;68406;53.914;27.416;2023-03-11T04:23:49;27.6;21.6;14
78999;PMS7003;68406;53.914;27.416;2023-03-11T04:29:21;30.6;22.2;13.7
78999;PMS7003;68406;53.914;27.416;2023-03-11T04:33:55;29.4;23;13.4
78999;PMS7003;68406;53.914;27.416;2023-03-11T04:38:35;29.5;22.2;14.4
78999;PMS7003;68406;53.914;27.416;2023-03-11T04:44:17;28;21.1;12.6
78999;PMS7003;68406;53.914;27.416;2023-03-11T04:49:07;26.7;20.9;14
78999;PMS7003;68406;53.914;27.416;2023-03-11T04:54:17;28.3;22.3;14.7
78999;PMS7003;68406;53.914;27.416;2023-03-11T04:58:35;29.7;23.5;15.1
78999;PMS7003;68406;53.914;27.416;2023-03-11T05:03:47;29.7;23.9;16.2
78999;PMS7003;68406;53.914;27.416;2023-03-11T05:09:19;26.6;21.6;14.7
78999;PMS7003;68406;53.914;27.416;2023-03-11T05:14:11;28.9;22.9;15.2
78999;PMS7003;68406;53.914;27.416;2023-03-11T05:19:19;29.4;24;15.6
78999;PMS7003;68406;53.914;27.416;2023-03-11T05:23:35;29.4;24.3;15.8
78999;PMS7003;68406;53.914;27.416;2023-03-11T05:28:53;31.2;26.3;17
78999;PMS7003;68406;53.914;27.416;2023-03-11T05:33:57;28.1;22.4;14.7
78999;PMS7003;68406;53.914;27.416;2023-03-11T05:38:35;27.1;21.1;13.5
78999;PMS7003;68406;53.914;27.416;2023-03-11T05:44:05;28.1;23;14.9
78999;PMS7003;68406;53.914;27.416;2023-03-11T05:48:45;27;22.9;14.7
78999;PMS7003;68406;53.914;27.416;2023-03-11T05:54:17;30.2;24.9;16
78999;PMS7003;68406;53.914;27.416;2023-03-11T05:58:47;30.7;25.1;17
78999;PMS7003;68406;53.914;27.416;2023-03-11T06:03:35;29.1;24.7;16.6
78999;PMS7003;68406;53.914;27.416;2023-03-11T06:09:09;30.8;25.4;16.5
78999;PMS7003;68406;53.914;27.416;2023-03-11T06:13:45;33.4;27.1;17.4
78999;PMS7003;68406;53.914;27.416;2023-03-11T06:19:17;33.2;27.1;18.1
78999;PMS7003;68406;53.914;27.416;2023-03-11T06:24:01;36.1;28.5;17.6
78999;PMS7003;68406;53.914;27.416;2023-03-11T06:28:37;32.8;28.3;18.3
78999;PMS7003;68406;53.914;27.416;2023-03-11T06:34:05;33;27.6;17.7
78999;PMS7003;68406;53.914;27.416;2023-03-11T06:38:47;32.5;26.6;15.5
78999;PMS7003;68406;53.914;27.416;2023-03-11T06:44:17;35.4;28.3;19.2
78999;PMS7003;68406;53.914;27.416;2023-03-11T06:48:57;35.5;28.7;18.9
78999;PMS7003;68406;53.914;27.416;2023-03-11T06:53:37;36.8;30.4;19
78999;PMS7003;68406;53.914;27.416;2023-03-11T06:59:07;36.7;29.5;19.4
78999;PMS7003;68406;53.914;27.416;2023-03-11T07:03:35;33.8;28;19.5
78999;PMS7003;68406;53.914;27.416;2023-03-11T07:09:19;35.1;28.5;19.2
78999;PMS7003;68406;53.914;27.416;2023-03-11T07:13:35;34.2;27.2;17.7
78999;PMS7003;68406;53.914;27.416;2023-03-11T07:19:13;35.5;29.4;19.6
78999;PMS7003;68406;53.914;27.416;2023-03-11T07:24:03;31.1;26.5;17
78999;PMS7003;68406;53.914;27.416;2023-03-11T07:28:49;29.8;26.1;16.9
78999;PMS7003;68406;53.914;27.416;2023-03-11T07:34:15;28.1;22.7;15.6
78999;PMS7003;68406;53.914;27.416;2023-03-11T07:38:45;30.2;26.3;17.5
78999;PMS7003;68406;53.914;27.416;2023-03-11T07:43:47;28.6;24.9;16.2
78999;PMS7003;68406;53.914;27.416;2023-03-11T07:48:51;32.1;27.8;18.5
78999;PMS7003;68406;53.914;27.416;2023-03-11T07:53:35;33.2;28.8;18.1
78999;PMS7003;68406;53.914;27.416;2023-03-11T07:59:17;31.5;26.5;17.8
78999;PMS7003;68406;53.914;27.416;2023-03-11T08:03:47;33.1;27.8;18.7
78999;PMS7003;68406;53.914;27.416;2023-03-11T08:08:55;32.2;26.9;18
78999;PMS7003;68406;53.914;27.416;2023-03-11T08:13:59;29.3;25.1;17.5
78999;PMS7003;68406;53.914;27.416;2023-03-11T08:18:55;31;26.8;18.5
78999;PMS7003;68406;53.914;27.416;2023-03-11T08:24:13;27.6;23.4;16.1
78999;PMS7003;68406;53.914;27.416;2023-03-11T08:29:05;28;24.6;17.3
78999;PMS7003;68406;53.914;27.416;2023-03-11T08:33:46;26.8;23.7;16.7
78999;PMS7003;68406;53.914;27.416;2023-03-11T08:39:05;26.5;23.3;16.2
78999;PMS7003;68406;53.914;27.416;2023-03-11T08:43:35;25;21.9;15.3
78999;PMS7003;68406;53.914;27.416;2023-03-11T08:49:15;25.6;21;14.7
78999;PMS7003;68406;53.914;27.416;2023-03-11T08:53:45;26.1;22.5;16.3
78999;PMS7003;68406;53.914;27.416;2023-03-11T08:58:55;23.2;20.3;14.8
78999;PMS7003;68406;53.914;27.416;2023-03-11T09:04:05;22.4;20.1;14.7
78999;PMS7003;68406;53.914;27.416;2023-03-11T09:08:35;21.4;17.6;12.6
78999;PMS7003;68406;53.914;27.416;2023-03-11T09:14:17;23.2;20.3;14.5
78999;PMS7003;68406;53.914;27.416;2023-03-11T09:18:47;19.1;17.6;12.9
78999;PMS7003;68406;53.914;27.416;2023-03-11T09:23:45;22.1;19.3;14.4
78999;PMS7003;68406;53.914;27.416;2023-03-11T09:29:17;21.6;18.7;13.7
78999;PMS7003;68406;53.914;27.416;2023-03-11T09:33:36;22.2;19.3;14
78999;PMS7003;68406;53.914;27.416;2023-03-11T09:39:05;20.1;17.8;13.1
78999;PMS7003;68406;53.914;27.416;2023-03-11T09:43:53;20.2;17.1;13.1
78999;PMS7003;68406;53.914;27.416;2023-03-11T09:48:38;20.2;18.4;13.6
78999;PMS7003;68406;53.914;27.416;2023-03-11T09:54:19;23;20.2;14.7
